Terminal Aerodrome Forecast
Issued by NWS

Home | Current Version | Previous Version | Text Only | Print | Product List | Glossary On
Versions: 1 2 3 4 5 6 7 8 9 10 11 12 13 14 15 16
000
FTUS46 KMTR 251720
TAFMRY
TAF
KMRY 251720Z 2518/2618 27011G18KT P6SM FEW015 SCT120
     FM260300 26006KT P6SM SCT010 SCT100
     FM260800 22003KT P6SM BKN010 OVC030=

USA.gov is the U.S. government's official web portal to all federal, state and local government web resources and services.